createdAt,value
2022-09-10T00:05:03.820Z,0.70
2022-09-10T00:15:07.809Z,0.85
2022-09-10T00:25:12.286Z,0.80
2022-09-10T00:35:15.431Z,0.88
2022-09-10T00:45:22.107Z,0.73
2022-09-10T00:55:25.409Z,0.80
2022-09-10T01:05:30.111Z,0.70
2022-09-10T01:15:41.037Z,0.82
2022-09-10T01:25:58.315Z,0.80
2022-09-10T01:36:09.578Z,0.77
2022-09-10T01:46:26.707Z,1.00
2022-09-10T01:56:39.767Z,1.00
2022-09-10T02:06:47.589Z,0.70
2022-09-10T02:16:55.299Z,0.60
2022-09-10T02:26:58.323Z,0.60
2022-09-10T02:37:03.545Z,0.47
2022-09-10T02:47:06.923Z,0.50
2022-09-10T02:57:12.220Z,0.50
2022-09-10T03:07:17.064Z,0.80
2022-09-10T03:17:21.412Z,0.60
2022-09-10T03:27:25.349Z,0.70
2022-09-10T03:37:31.304Z,0.70
2022-09-10T03:47:34.295Z,1.00
2022-09-10T03:57:38.921Z,0.65
2022-09-10T04:07:42.916Z,0.60
2022-09-10T04:17:48.206Z,0.63
2022-09-10T04:27:52.397Z,0.90
2022-09-10T04:37:56.805Z,0.60
2022-09-10T04:48:03.604Z,0.60
2022-09-10T04:58:10.688Z,0.50
2022-09-10T05:08:14.102Z,0.73
2022-09-10T05:18:18.538Z,0.70
2022-09-10T05:28:22.619Z,1.00
2022-09-10T05:38:26.986Z,0.70
2022-09-10T05:48:31.065Z,0.90
2022-09-10T05:58:35.588Z,0.80
2022-09-10T06:08:39.897Z,0.88
2022-09-10T06:18:44.908Z,0.90
2022-09-10T06:28:49.704Z,0.90
2022-09-10T06:38:55.621Z,0.70
2022-09-10T06:49:00.834Z,0.80
2022-09-10T06:59:05.559Z,0.90
2022-09-10T07:09:08.562Z,0.70
2022-09-10T07:19:15.118Z,0.85
2022-09-10T07:29:19.279Z,0.80
2022-09-10T07:39:25.941Z,0.80
2022-09-10T07:49:29.163Z,0.77
2022-09-10T07:59:33.571Z,0.77
2022-09-10T08:09:36.741Z,0.98
2022-09-10T08:19:41.540Z,0.80
2022-09-10T08:29:44.875Z,1.23
2022-09-10T08:39:49.278Z,0.85
2022-09-10T08:49:56.429Z,0.95
2022-09-10T09:00:02.469Z,0.95
2022-09-10T09:10:15.311Z,0.90
2022-09-10T09:20:26.525Z,0.70
2022-09-10T09:30:35.503Z,0.70
2022-09-10T09:40:47.371Z,0.85
2022-09-10T09:50:54.436Z,0.90
2022-09-10T10:01:12.356Z,0.80
2022-09-10T10:11:19.582Z,0.95
2022-09-10T10:21:31.456Z,0.80
2022-09-10T10:31:41.297Z,0.57
2022-09-10T10:41:54.372Z,0.70
2022-09-10T10:52:07.743Z,0.60
2022-09-10T11:02:18.640Z,0.63
2022-09-10T11:12:28.271Z,0.75
2022-09-10T11:22:36.532Z,0.60
2022-09-10T11:32:42.896Z,0.70
2022-09-10T11:42:52.270Z,0.70
2022-09-10T11:52:56.468Z,0.50
2022-09-10T12:03:31.461Z,0.55
2022-09-10T12:13:39.361Z,0.52
2022-09-10T12:23:45.447Z,0.50
2022-09-10T12:34:12.361Z,0.50
2022-09-10T12:44:34.377Z,0.63
2022-09-10T12:54:51.374Z,0.70
2022-09-10T13:05:00.566Z,0.50
2022-09-10T13:15:04.870Z,0.40
2022-09-10T13:25:34.866Z,0.40
2022-09-10T13:36:18.046Z,0.52
2022-09-10T13:46:28.261Z,0.55
2022-09-10T13:56:32.257Z,0.60
2022-09-10T14:06:37.661Z,0.50
2022-09-10T14:16:45.166Z,0.55
2022-09-10T14:27:06.148Z,0.50
2022-09-10T14:37:32.105Z,0.60
2022-09-10T14:47:37.165Z,0.60
2022-09-10T14:57:41.272Z,0.52
2022-09-10T15:07:45.770Z,0.80
2022-09-10T15:17:48.753Z,0.80
2022-09-10T15:27:53.131Z,0.80
2022-09-10T15:37:56.455Z,1.35
2022-09-10T15:48:01.951Z,2.08
2022-09-10T15:58:05.190Z,1.77
2022-09-10T16:08:09.577Z,1.70
2022-09-10T16:18:12.977Z,2.20
2022-09-10T16:28:17.351Z,1.23
2022-09-10T16:38:20.393Z,1.70
2022-09-10T16:48:24.810Z,2.00
2022-09-10T16:58:27.866Z,0.88
2022-09-10T17:08:32.400Z,0.93
2022-09-10T17:18:35.457Z,1.00
2022-09-10T17:28:40.393Z,0.70
2022-09-10T17:38:43.518Z,0.80
2022-09-10T17:48:48.315Z,1.17
2022-09-10T17:58:55.717Z,0.90
2022-09-10T18:09:00.624Z,1.10
2022-09-10T18:19:12.954Z,1.17
2022-09-10T18:29:20.522Z,1.70
2022-09-10T18:39:24.879Z,1.33
2022-09-10T18:49:29.616Z,1.90
2022-09-10T18:59:32.686Z,1.30
2022-09-10T19:09:37.181Z,1.13
2022-09-10T19:19:40.171Z,1.20
2022-09-10T19:29:44.901Z,1.30
2022-09-10T19:39:47.950Z,1.30
2022-09-10T19:49:52.967Z,1.17
2022-09-10T19:59:56.007Z,1.20
2022-09-10T20:10:01.516Z,1.33
2022-09-10T20:20:05.724Z,1.58
2022-09-10T20:30:11.745Z,2.10
2022-09-10T20:40:14.871Z,1.88
2022-09-10T20:50:19.381Z,2.40
2022-09-10T21:00:22.723Z,1.40
2022-09-10T21:10:27.083Z,1.38
2022-09-10T21:20:30.254Z,1.60
2022-09-10T21:30:34.768Z,1.80
2022-09-10T21:40:38.757Z,1.85
2022-09-10T21:50:43.120Z,1.40
2022-09-10T22:00:46.127Z,1.60
2022-09-10T22:10:51.434Z,1.63
2022-09-10T22:21:00.742Z,1.55
2022-09-10T22:31:10.021Z,1.35
2022-09-10T22:41:14.152Z,1.88
2022-09-10T22:51:20.842Z,2.08
2022-09-10T23:01:25.741Z,1.90
2022-09-10T23:11:31.781Z,1.67
2022-09-10T23:21:36.087Z,1.55
2022-09-10T23:31:41.847Z,1.30
2022-09-10T23:41:45.229Z,1.38
2022-09-10T23:51:50.547Z,1.70
